createdAt,value
2018-06-04T00:00:00.995Z,6.08
2018-06-04T00:02:29.712Z,3.33
2018-06-04T00:04:58.479Z,4.45
2018-06-04T00:07:27.249Z,4.17
2018-06-04T00:09:56.109Z,4.53
2018-06-04T00:12:24.915Z,7.37
2018-06-04T00:14:53.713Z,3.45
2018-06-04T00:17:22.541Z,5.15
2018-06-04T00:19:51.303Z,3.42
2018-06-04T00:22:20.010Z,3.52
2018-06-04T00:24:48.849Z,3.25
2018-06-04T00:27:17.602Z,3.35
2018-06-04T00:29:46.367Z,3.85
2018-06-04T00:32:15.265Z,3.60
2018-06-04T00:34:44.016Z,5.35
2018-06-04T00:37:12.920Z,4.87
2018-06-04T00:39:41.721Z,3.60
2018-06-04T00:42:10.511Z,3.47
2018-06-04T00:44:39.286Z,3.27
2018-06-04T00:47:08.002Z,3.50
2018-06-04T00:49:36.786Z,3.20
2018-06-04T00:52:05.540Z,2.98
2018-06-04T00:54:34.354Z,3.55
2018-06-04T00:57:03.177Z,3.90
2018-06-04T00:59:31.938Z,3.25
2018-06-04T01:02:01.415Z,4.60
2018-06-04T01:04:30.138Z,3.83
2018-06-04T01:06:59.112Z,3.33
2018-06-04T01:09:27.845Z,2.98
2018-06-04T01:11:56.648Z,4.12
2018-06-04T01:14:25.377Z,3.15
2018-06-04T01:16:54.217Z,3.50
2018-06-04T01:19:23.005Z,4.33
2018-06-04T01:21:51.752Z,3.30
2018-06-04T01:24:20.473Z,3.77
2018-06-04T01:26:49.191Z,3.10
2018-06-04T01:29:17.940Z,4.95
2018-06-04T01:31:46.673Z,3.33
2018-06-04T01:34:15.416Z,3.12
2018-06-04T01:36:44.181Z,4.60
2018-06-04T01:39:13.090Z,3.10
2018-06-04T01:41:41.858Z,3.95
2018-06-04T01:44:10.601Z,3.52
2018-06-04T01:46:39.516Z,3.10
2018-06-04T01:49:08.424Z,3.75
2018-06-04T01:51:37.218Z,3.35
2018-06-04T01:54:06.094Z,3.80
2018-06-04T01:56:34.833Z,3.25
2018-06-04T01:59:03.592Z,3.42
2018-06-04T02:01:32.295Z,2.98
2018-06-04T02:04:01.068Z,3.70
2018-06-04T02:06:29.873Z,3.37
2018-06-04T02:08:58.595Z,3.25
2018-06-04T02:11:27.424Z,3.40
2018-06-04T02:13:56.218Z,3.30
2018-06-04T02:16:24.974Z,4.35
2018-06-04T02:18:53.768Z,3.95
2018-06-04T02:21:22.582Z,3.87
2018-06-04T02:23:51.299Z,4.72
2018-06-04T02:26:20.065Z,3.67
2018-06-04T02:28:48.799Z,6.12
2018-06-04T02:31:17.636Z,3.20
2018-06-04T02:33:46.363Z,2.87
2018-06-04T02:36:15.227Z,3.50
2018-06-04T02:38:44.023Z,3.65
2018-06-04T02:41:12.799Z,3.50
2018-06-04T02:43:41.527Z,3.75
2018-06-04T02:46:10.563Z,3.85
2018-06-04T02:48:39.313Z,3.05
2018-06-04T02:51:08.122Z,3.10
2018-06-04T02:53:37.022Z,3.65
2018-06-04T02:56:05.799Z,3.70
2018-06-04T02:58:34.626Z,3.00
2018-06-04T03:01:03.363Z,3.12
2018-06-04T03:03:32.271Z,3.37
2018-06-04T03:06:01.017Z,5.78
2018-06-04T03:08:29.827Z,3.15
2018-06-04T03:10:58.633Z,3.10
2018-06-04T03:13:27.346Z,3.45
2018-06-04T03:15:56.113Z,3.08
2018-06-04T03:18:24.888Z,3.10
2018-06-04T03:20:53.613Z,2.98
2018-06-04T03:23:22.315Z,4.33
2018-06-04T03:25:51.112Z,3.12
2018-06-04T03:28:19.836Z,4.22
2018-06-04T03:30:48.611Z,3.65
2018-06-04T03:33:17.465Z,3.37
2018-06-04T03:35:46.207Z,2.90
2018-06-04T03:38:14.909Z,2.80
2018-06-04T03:40:43.619Z,3.12
2018-06-04T03:43:12.506Z,2.87
2018-06-04T03:45:41.209Z,2.80
2018-06-04T03:48:10.011Z,5.03
2018-06-04T03:50:38.804Z,2.60
2018-06-04T03:53:07.662Z,4.35
2018-06-04T03:55:36.371Z,2.80
2018-06-04T03:58:05.108Z,3.50
2018-06-04T04:00:33.852Z,3.50
2018-06-04T04:03:02.622Z,2.87
2018-06-04T04:05:31.834Z,2.37
2018-06-04T04:08:00.615Z,2.52
2018-06-04T04:10:29.424Z,3.65
2018-06-04T04:12:58.182Z,4.03
2018-06-04T04:15:26.919Z,4.30
2018-06-04T04:17:55.669Z,3.08
2018-06-04T04:20:24.382Z,5.58
2018-06-04T04:22:53.250Z,3.15
2018-06-04T04:25:22.040Z,2.80
2018-06-04T04:27:50.814Z,3.00
2018-06-04T04:30:19.564Z,2.45
2018-06-04T04:32:49.424Z,2.52
2018-06-04T04:35:18.163Z,2.10
2018-06-04T04:37:46.918Z,3.08
2018-06-04T04:40:15.687Z,1.87
2018-06-04T04:42:44.410Z,3.15
2018-06-04T04:45:13.167Z,1.85
2018-06-04T04:47:41.970Z,2.02
2018-06-04T04:50:11.149Z,2.10
2018-06-04T04:52:39.904Z,2.20
2018-06-04T04:55:08.649Z,2.83
2018-06-04T04:57:37.406Z,2.10
2018-06-04T05:00:06.298Z,2.90
2018-06-04T05:02:35.046Z,2.30
2018-06-04T05:05:03.799Z,2.95
2018-06-04T05:07:32.614Z,2.45
2018-06-04T05:10:01.379Z,3.45
2018-06-04T05:12:30.209Z,2.42
2018-06-04T05:14:58.938Z,2.92
2018-06-04T05:17:27.621Z,2.67
2018-06-04T05:19:56.399Z,3.22
2018-06-04T05:22:25.167Z,3.10
2018-06-04T05:24:53.922Z,3.47
2018-06-04T05:27:22.760Z,4.95
2018-06-04T05:29:51.554Z,10.32
2018-06-04T05:32:20.342Z,9.30
2018-06-04T05:34:49.069Z,9.20
2018-06-04T05:37:17.950Z,6.87
2018-06-04T05:39:46.698Z,8.10
2018-06-04T05:42:15.610Z,5.15
2018-06-04T05:44:44.324Z,6.87
2018-06-04T05:47:13.059Z,7.33
2018-06-04T05:49:41.824Z,5.70
2018-06-04T05:52:10.795Z,5.42
2018-06-04T05:54:39.559Z,4.97
2018-06-04T05:57:08.633Z,6.05
2018-06-04T05:59:38.814Z,4.00
2018-06-04T06:02:08.963Z,5.25
2018-06-04T06:04:37.856Z,5.17
2018-06-04T06:07:06.606Z,4.83
2018-06-04T06:09:35.530Z,5.85
2018-06-04T06:12:04.271Z,4.20
2018-06-04T06:14:33.091Z,6.05
2018-06-04T06:17:01.843Z,5.92
2018-06-04T06:19:30.556Z,7.40
2018-06-04T06:21:59.429Z,11.20
2018-06-04T06:24:28.116Z,7.85
2018-06-04T06:26:56.830Z,10.85
2018-06-04T06:29:25.717Z,11.50
2018-06-04T06:31:54.534Z,15.83
2018-06-04T06:34:23.390Z,15.55
2018-06-04T06:36:52.109Z,17.70
2018-06-04T06:39:20.833Z,11.85
2018-06-04T06:41:50.130Z,11.38
2018-06-04T06:44:18.898Z,18.45
2018-06-04T06:46:47.620Z,12.88
2018-06-04T06:49:16.374Z,13.90
2018-06-04T06:51:45.105Z,12.85
2018-06-04T06:54:13.895Z,12.00
2018-06-04T06:56:42.663Z,16.02
2018-06-04T06:59:11.350Z,13.38
2018-06-04T07:01:40.090Z,16.20
2018-06-04T07:04:08.799Z,11.63
2018-06-04T07:06:38.930Z,17.98
2018-06-04T07:09:09.290Z,15.40
2018-06-04T07:11:38.038Z,10.35
2018-06-04T07:14:06.755Z,10.38
2018-06-04T07:16:36.106Z,13.48
2018-06-04T07:19:04.921Z,8.48
2018-06-04T07:21:33.767Z,19.90
2018-06-04T07:24:02.519Z,18.85
2018-06-04T07:26:31.268Z,13.88
2018-06-04T07:28:59.982Z,17.15
2018-06-04T07:31:28.698Z,21.75
2018-06-04T07:33:57.413Z,14.65
2018-06-04T07:36:26.128Z,20.72
2018-06-04T07:38:54.861Z,14.53
2018-06-04T07:41:23.697Z,16.77
2018-06-04T07:43:52.429Z,13.13
2018-06-04T07:46:21.117Z,14.63
2018-06-04T07:48:49.929Z,13.13
2018-06-04T07:51:18.634Z,20.10
2018-06-04T07:53:47.508Z,9.23
2018-06-04T07:56:16.372Z,9.28
2018-06-04T07:58:47.162Z,6.35
2018-06-04T08:01:16.133Z,8.20
2018-06-04T08:03:44.865Z,7.85
2018-06-04T08:06:13.635Z,9.20
2018-06-04T08:08:42.649Z,11.53
2018-06-04T08:11:11.563Z,11.53
2018-06-04T08:13:40.418Z,4.97
2018-06-04T08:16:09.255Z,7.62
2018-06-04T08:18:38.023Z,8.95
2018-06-04T08:21:06.932Z,8.25
2018-06-04T08:23:36.331Z,6.53
2018-06-04T08:26:05.092Z,6.45
2018-06-04T08:28:33.963Z,8.85
2018-06-04T08:31:02.837Z,11.00
2018-06-04T08:33:31.685Z,8.08
2018-06-04T08:36:00.564Z,6.67
2018-06-04T08:38:29.391Z,6.80
2018-06-04T08:40:58.154Z,6.75
2018-06-04T08:43:26.927Z,4.35
2018-06-04T08:45:56.119Z,5.85
2018-06-04T08:48:24.907Z,13.00
2018-06-04T08:50:54.569Z,6.78
2018-06-04T08:53:23.294Z,10.32
2018-06-04T08:55:52.361Z,8.78
2018-06-04T08:58:21.075Z,6.00
2018-06-04T09:00:49.871Z,9.23
2018-06-04T09:03:18.663Z,8.33
2018-06-04T09:05:47.497Z,6.90
2018-06-04T09:08:16.369Z,6.75
2018-06-04T09:10:45.098Z,3.75
2018-06-04T09:13:13.884Z,6.42
2018-06-04T09:15:42.709Z,5.22
2018-06-04T09:18:11.547Z,4.47
2018-06-04T09:20:40.280Z,2.80
2018-06-04T09:23:09.009Z,5.90
2018-06-04T09:25:37.843Z,5.80
2018-06-04T09:28:06.588Z,4.75
2018-06-04T09:30:35.307Z,3.98
2018-06-04T09:33:03.992Z,4.42
2018-06-04T09:35:32.739Z,3.50
2018-06-04T09:38:01.418Z,6.20
2018-06-04T09:40:30.150Z,4.10
2018-06-04T09:42:58.959Z,5.25
2018-06-04T09:45:27.637Z,4.00
2018-06-04T09:47:56.382Z,4.92
2018-06-04T09:50:25.135Z,4.80
2018-06-04T09:52:53.812Z,4.45
2018-06-04T09:55:22.519Z,3.45
2018-06-04T09:57:51.279Z,7.22
2018-06-04T10:00:25.238Z,2.47
2018-06-04T10:02:53.986Z,4.72
2018-06-04T10:05:22.685Z,2.25
2018-06-04T10:07:51.400Z,3.25
2018-06-04T10:10:20.099Z,3.58
2018-06-04T10:12:48.848Z,2.95
2018-06-04T10:15:17.604Z,3.42
2018-06-04T10:17:46.374Z,3.22
2018-06-04T10:20:15.216Z,4.65
2018-06-04T10:22:43.974Z,2.60
2018-06-04T10:25:12.721Z,1.47
2018-06-04T10:27:41.441Z,7.50
2018-06-04T10:30:10.145Z,3.15
2018-06-04T10:32:38.885Z,3.15
2018-06-04T10:35:07.641Z,2.25
2018-06-04T10:37:36.644Z,3.55
2018-06-04T10:40:05.532Z,2.87
2018-06-04T10:42:34.302Z,3.00
2018-06-04T10:45:03.012Z,2.85
2018-06-04T10:47:31.762Z,2.77
2018-06-04T10:50:00.439Z,4.08
2018-06-04T10:52:29.192Z,2.67
2018-06-04T10:54:57.951Z,2.95
2018-06-04T10:57:26.802Z,1.67
2018-06-04T10:59:55.531Z,3.37
2018-06-04T11:02:24.399Z,2.62
2018-06-04T11:04:53.125Z,2.33
2018-06-04T11:07:21.898Z,2.40
2018-06-04T11:09:50.694Z,2.05
2018-06-04T11:12:19.471Z,3.17
2018-06-04T11:14:48.190Z,1.37
2018-06-04T11:17:16.937Z,2.95
2018-06-04T11:19:45.693Z,1.47
2018-06-04T11:22:14.437Z,1.27
2018-06-04T11:24:43.226Z,1.55
2018-06-04T11:27:11.970Z,2.00
2018-06-04T11:29:40.783Z,1.10
2018-06-04T11:32:09.548Z,2.95
2018-06-04T11:34:38.300Z,1.60
2018-06-04T11:37:07.025Z,1.50
2018-06-04T11:39:35.941Z,1.60
2018-06-04T11:42:04.670Z,1.25
2018-06-04T11:44:33.380Z,1.40
2018-06-04T11:47:02.162Z,1.37
2018-06-04T11:49:30.876Z,1.30
2018-06-04T11:51:59.667Z,1.52
2018-06-04T11:54:28.367Z,1.07
2018-06-04T11:56:57.098Z,1.27
2018-06-04T11:59:25.823Z,1.65
2018-06-04T12:01:54.529Z,2.50
2018-06-04T12:04:23.218Z,1.65
2018-06-04T12:06:51.913Z,1.45
2018-06-04T12:09:20.665Z,2.25
2018-06-04T12:11:49.483Z,2.35
2018-06-04T12:14:18.185Z,2.10
2018-06-04T12:16:46.970Z,1.80
2018-06-04T12:19:16.653Z,1.40
2018-06-04T12:21:45.395Z,1.52
2018-06-04T12:24:14.180Z,1.60
2018-06-04T12:26:43.075Z,1.32
2018-06-04T12:29:11.886Z,1.47
2018-06-04T12:31:40.638Z,1.02
2018-06-04T12:34:09.394Z,4.15
2018-06-04T12:36:38.094Z,1.62
2018-06-04T12:39:09.157Z,3.95
2018-06-04T12:41:37.945Z,2.00
2018-06-04T12:44:06.735Z,4.33
2018-06-04T12:46:35.471Z,3.02
2018-06-04T12:49:04.292Z,4.97
2018-06-04T12:51:33.072Z,2.33
2018-06-04T12:54:01.825Z,2.27
2018-06-04T12:56:30.579Z,1.15
2018-06-04T12:58:59.394Z,2.17
2018-06-04T13:01:28.116Z,1.92
2018-06-04T13:03:56.924Z,2.47
2018-06-04T13:06:25.633Z,3.08
2018-06-04T13:08:54.461Z,2.30
2018-06-04T13:11:23.188Z,3.20
2018-06-04T13:13:51.979Z,1.12
2018-06-04T13:16:20.799Z,0.95
2018-06-04T13:18:49.600Z,1.30
2018-06-04T13:21:18.284Z,2.10
2018-06-04T13:23:47.064Z,1.87
2018-06-04T13:26:15.888Z,1.45
2018-06-04T13:28:44.627Z,1.87
2018-06-04T13:31:13.380Z,0.72
2018-06-04T13:33:42.229Z,2.08
2018-06-04T13:36:10.969Z,1.60
2018-06-04T13:38:39.707Z,1.30
2018-06-04T13:41:08.438Z,2.47
2018-06-04T13:43:37.241Z,1.05
2018-06-04T13:46:06.001Z,2.02
2018-06-04T13:48:34.730Z,1.02
2018-06-04T13:51:03.590Z,1.17
2018-06-04T13:53:32.444Z,1.95
2018-06-04T13:56:01.363Z,2.60
2018-06-04T13:58:30.163Z,1.25
2018-06-04T14:00:58.930Z,1.27
2018-06-04T14:03:27.684Z,1.85
2018-06-04T14:05:56.484Z,1.60
2018-06-04T14:08:25.256Z,0.90
2018-06-04T14:10:54.001Z,1.37
2018-06-04T14:13:22.734Z,2.37
2018-06-04T14:15:51.492Z,1.00
2018-06-04T14:18:20.246Z,1.10
2018-06-04T14:20:49.001Z,1.87
2018-06-04T14:23:17.835Z,0.88
2018-06-04T14:25:46.639Z,1.40
2018-06-04T14:28:15.565Z,1.95
2018-06-04T14:30:44.349Z,1.45
2018-06-04T14:33:13.075Z,1.98
2018-06-04T14:35:41.820Z,1.00
2018-06-04T14:38:10.611Z,1.20
2018-06-04T14:40:39.402Z,1.00
2018-06-04T14:43:08.156Z,1.55
2018-06-04T14:45:38.022Z,1.72
2018-06-04T14:48:06.830Z,1.45
2018-06-04T14:50:35.609Z,3.95
2018-06-04T14:53:04.350Z,1.00
2018-06-04T14:55:33.153Z,2.42
2018-06-04T14:58:01.913Z,1.25
2018-06-04T15:00:30.669Z,0.70
2018-06-04T15:02:59.410Z,3.08
2018-06-04T15:05:28.270Z,1.82
2018-06-04T15:07:57.315Z,2.27
2018-06-04T15:10:26.122Z,1.00
2018-06-04T15:12:54.867Z,1.62
2018-06-04T15:15:23.629Z,2.20
2018-06-04T15:17:52.451Z,1.00
2018-06-04T15:20:21.237Z,2.08
2018-06-04T15:22:50.069Z,0.90
2018-06-04T15:25:18.808Z,1.65
2018-06-04T15:27:47.551Z,0.62
2018-06-04T15:30:16.403Z,0.85
2018-06-04T15:32:45.174Z,1.75
2018-06-04T15:35:13.946Z,1.95
2018-06-04T15:37:42.753Z,2.37
2018-06-04T15:40:11.546Z,3.42
2018-06-04T15:42:40.282Z,1.70
2018-06-04T15:45:09.073Z,3.30
2018-06-04T15:47:37.897Z,1.98
2018-06-04T15:50:06.651Z,1.25
2018-06-04T15:52:35.424Z,1.07
2018-06-04T15:55:04.316Z,3.08
2018-06-04T15:57:34.431Z,1.45
2018-06-04T16:00:03.232Z,3.27
2018-06-04T16:02:31.975Z,1.25
2018-06-04T16:05:00.743Z,3.50
2018-06-04T16:07:29.521Z,3.08
2018-06-04T16:09:58.305Z,2.58
2018-06-04T16:12:27.052Z,1.82
2018-06-04T16:14:55.817Z,1.47
2018-06-04T16:17:24.637Z,1.60
2018-06-04T16:19:53.383Z,1.72
2018-06-04T16:22:22.958Z,1.87
2018-06-04T16:24:51.749Z,1.67
2018-06-04T16:27:20.489Z,1.85
2018-06-04T16:29:49.218Z,3.62
2018-06-04T16:32:18.012Z,3.22
2018-06-04T16:34:46.881Z,2.47
2018-06-04T16:37:15.665Z,3.02
2018-06-04T16:39:44.472Z,2.58
2018-06-04T16:42:13.264Z,2.50
2018-06-04T16:44:41.985Z,3.25
2018-06-04T16:47:10.725Z,3.40
2018-06-04T16:49:39.490Z,2.58
2018-06-04T16:52:08.231Z,3.60
2018-06-04T16:54:36.988Z,8.00
2018-06-04T16:57:05.920Z,7.08
2018-06-04T16:59:34.811Z,11.60
2018-06-04T17:02:03.853Z,6.50
2018-06-04T17:04:32.954Z,4.22
2018-06-04T17:07:01.825Z,8.70
2018-06-04T17:09:30.701Z,12.13
2018-06-04T17:11:59.742Z,7.35
2018-06-04T17:14:28.696Z,7.17
2018-06-04T17:16:57.710Z,7.20
2018-06-04T17:19:26.444Z,9.85
2018-06-04T17:21:55.174Z,6.62
2018-06-04T17:24:23.896Z,4.37
2018-06-04T17:26:52.637Z,9.73
2018-06-04T17:29:21.381Z,6.40
2018-06-04T17:31:50.977Z,6.97
2018-06-04T17:34:19.774Z,8.50
2018-06-04T17:36:48.562Z,3.50
2018-06-04T17:39:17.293Z,6.80
2018-06-04T17:41:46.055Z,5.53
2018-06-04T17:44:14.850Z,3.55
2018-06-04T17:46:43.682Z,6.40
2018-06-04T17:49:12.487Z,3.12
2018-06-04T17:51:41.263Z,5.03
2018-06-04T17:54:10.140Z,3.25
2018-06-04T17:56:38.949Z,4.87
2018-06-04T17:59:08.270Z,3.10
2018-06-04T18:01:37.496Z,3.25
2018-06-04T18:04:06.364Z,3.45
2018-06-04T18:06:35.211Z,3.75
2018-06-04T18:09:05.003Z,4.33
2018-06-04T18:11:33.789Z,5.00
2018-06-04T18:14:02.696Z,3.12
2018-06-04T18:16:31.456Z,5.55
2018-06-04T18:19:00.248Z,3.83
2018-06-04T18:21:29.057Z,4.03
2018-06-04T18:23:57.965Z,3.20
2018-06-04T18:26:26.818Z,5.67
2018-06-04T18:28:55.755Z,3.00
2018-06-04T18:31:24.519Z,3.70
2018-06-04T18:33:53.433Z,3.27
2018-06-04T18:36:22.246Z,4.67
2018-06-04T18:38:51.014Z,3.30
2018-06-04T18:41:19.758Z,3.72
2018-06-04T18:43:48.580Z,4.40
2018-06-04T18:46:17.502Z,3.67
2018-06-04T18:48:46.260Z,2.33
2018-06-04T18:51:15.027Z,3.25
2018-06-04T18:53:43.792Z,4.22
2018-06-04T18:56:12.654Z,4.55
2018-06-04T18:58:41.474Z,2.83
2018-06-04T19:01:10.286Z,3.98
2018-06-04T19:03:39.159Z,4.00
2018-06-04T19:06:08.058Z,3.65
2018-06-04T19:08:36.895Z,3.65
2018-06-04T19:11:05.688Z,3.25
2018-06-04T19:13:34.526Z,3.80
2018-06-04T19:16:03.603Z,5.42
2018-06-04T19:18:32.435Z,8.63
2018-06-04T19:21:01.259Z,3.42
2018-06-04T19:23:30.013Z,6.83
2018-06-04T19:25:58.837Z,4.72
2018-06-04T19:28:27.687Z,4.05
2018-06-04T19:30:56.589Z,3.17
2018-06-04T19:33:25.397Z,4.75
2018-06-04T19:35:54.132Z,3.50
2018-06-04T19:38:22.997Z,3.20
2018-06-04T19:40:56.193Z,4.28
2018-06-04T19:43:25.003Z,5.83
2018-06-04T19:45:53.845Z,2.40
2018-06-04T19:48:22.654Z,3.27
2018-06-04T19:50:51.473Z,3.25
2018-06-04T19:53:20.239Z,2.47
2018-06-04T19:55:49.090Z,3.00
2018-06-04T19:58:17.830Z,3.30
2018-06-04T20:00:46.630Z,4.00
2018-06-04T20:03:15.414Z,1.75
2018-06-04T20:05:44.135Z,4.90
2018-06-04T20:08:12.966Z,2.55
2018-06-04T20:10:41.729Z,2.55
2018-06-04T20:13:10.454Z,2.87
2018-06-04T20:15:39.230Z,4.12
2018-06-04T20:18:08.021Z,2.15
2018-06-04T20:20:36.851Z,1.82
2018-06-04T20:23:05.682Z,4.35
2018-06-04T20:25:34.475Z,1.62
2018-06-04T20:41:03.621Z,2.90
2018-06-04T20:43:32.363Z,2.22
2018-06-04T20:46:01.281Z,2.95
2018-06-04T20:48:30.101Z,1.87
2018-06-04T20:50:58.871Z,2.42
2018-06-04T20:53:27.614Z,3.00
2018-06-04T20:55:56.383Z,1.62
2018-06-04T20:58:25.221Z,1.40
2018-06-04T21:00:53.950Z,3.40
2018-06-04T21:03:22.693Z,1.65
2018-06-04T21:05:51.504Z,2.85
2018-06-04T21:08:20.254Z,1.70
2018-06-04T21:10:48.985Z,1.98
2018-06-04T21:13:17.799Z,2.37
2018-06-04T21:15:46.536Z,1.57
2018-06-04T21:18:15.253Z,1.40
2018-06-04T21:20:44.051Z,2.08
2018-06-04T21:23:12.891Z,2.83
2018-06-04T21:25:41.638Z,3.05
2018-06-04T21:28:10.479Z,1.25
2018-06-04T21:30:39.328Z,1.47
2018-06-04T21:33:08.122Z,1.70
2018-06-04T21:35:37.392Z,1.98
2018-06-04T21:38:06.118Z,1.42
2018-06-04T21:40:34.851Z,0.85
2018-06-04T21:43:03.660Z,2.52
2018-06-04T21:45:32.687Z,4.92
2018-06-04T21:48:01.741Z,3.90
2018-06-04T21:50:30.645Z,1.87
2018-06-04T21:52:59.451Z,2.67
2018-06-04T21:55:28.207Z,2.85
2018-06-04T21:57:56.907Z,4.75
2018-06-04T22:00:25.660Z,2.22
2018-06-04T22:02:54.383Z,1.42
2018-06-04T22:05:23.107Z,2.12
2018-06-04T22:07:51.882Z,4.00
2018-06-04T22:10:20.636Z,3.65
2018-06-04T22:12:49.370Z,4.60
2018-06-04T22:15:18.139Z,1.85
2018-06-04T22:17:46.961Z,1.82
2018-06-04T22:20:15.704Z,2.80
2018-06-04T22:22:44.682Z,3.45
2018-06-04T22:25:13.390Z,2.70
2018-06-04T22:27:42.158Z,3.75
2018-06-04T22:30:10.952Z,5.35
2018-06-04T22:32:39.753Z,4.12
2018-06-04T22:35:08.476Z,3.80
2018-06-04T22:37:37.287Z,3.08
2018-06-04T22:40:06.034Z,3.22
2018-06-04T22:42:34.798Z,3.85
2018-06-04T22:45:03.595Z,4.33
2018-06-04T22:47:32.345Z,2.40
2018-06-04T22:50:01.023Z,3.37
2018-06-04T22:52:29.739Z,3.25
2018-06-04T22:54:58.485Z,2.00
2018-06-04T22:57:27.215Z,1.77
2018-06-04T22:59:55.897Z,3.30
2018-06-04T23:02:24.620Z,4.72
2018-06-04T23:04:53.340Z,2.75
2018-06-04T23:07:22.114Z,3.37
2018-06-04T23:09:50.924Z,8.98
2018-06-04T23:12:19.687Z,2.17
2018-06-04T23:14:48.405Z,5.85
2018-06-04T23:17:17.132Z,2.75
2018-06-04T23:19:45.891Z,5.28
2018-06-04T23:22:14.617Z,2.22
2018-06-04T23:24:43.311Z,4.08
2018-06-04T23:27:12.061Z,2.50
2018-06-04T23:29:40.814Z,3.25
2018-06-04T23:32:09.566Z,2.37
2018-06-04T23:34:38.335Z,2.62
2018-06-04T23:37:07.049Z,1.82
2018-06-04T23:39:35.791Z,2.08
2018-06-04T23:42:04.502Z,2.72
2018-06-04T23:44:33.243Z,5.05
2018-06-04T23:47:02.046Z,3.55
2018-06-04T23:49:30.799Z,3.98
2018-06-04T23:51:59.539Z,3.10
2018-06-04T23:54:28.213Z,3.72
2018-06-04T23:56:56.886Z,5.10
2018-06-04T23:59:25.624Z,3.85
